createdAt,value
2023-03-26T00:00:46.640Z,18.30
2023-03-26T00:01:46.906Z,16.60
2023-03-26T00:02:46.677Z,18.20
2023-03-26T00:03:46.639Z,12.80
2023-03-26T00:04:46.602Z,18.00
2023-03-26T00:05:46.622Z,13.20
2023-03-26T00:06:46.560Z,15.10
2023-03-26T00:07:46.618Z,15.40
2023-03-26T00:08:46.531Z,11.90
2023-03-26T00:09:46.565Z,14.00
2023-03-26T00:10:46.527Z,10.80
2023-03-26T00:11:46.521Z,9.70
2023-03-26T00:12:46.499Z,13.90
2023-03-26T00:13:46.505Z,7.60
2023-03-26T00:14:46.471Z,9.20
2023-03-26T00:15:46.461Z,10.90
2023-03-26T00:16:46.483Z,12.10
2023-03-26T00:17:46.519Z,9.50
2023-03-26T00:18:46.402Z,10.40
2023-03-26T00:19:46.399Z,11.10
2023-03-26T00:20:46.367Z,8.30
2023-03-26T00:21:46.403Z,9.00
2023-03-26T00:22:46.363Z,8.80
2023-03-26T00:23:46.367Z,11.60
2023-03-26T00:24:46.309Z,7.80
2023-03-26T00:26:46.284Z,11.60
2023-03-26T00:27:46.296Z,7.60
2023-03-26T00:28:46.287Z,7.50
2023-03-26T00:29:46.258Z,9.60
2023-03-26T00:30:46.245Z,8.70
2023-03-26T00:31:46.770Z,8.90
2023-03-26T00:32:53.691Z,11.20
2023-03-26T00:33:46.246Z,10.90
2023-03-26T00:34:46.176Z,9.20
2023-03-26T00:35:46.221Z,9.50
2023-03-26T00:36:46.163Z,9.40
2023-03-26T00:37:46.164Z,9.10
2023-03-26T00:38:46.148Z,7.40
2023-03-26T00:39:46.120Z,13.00
2023-03-26T00:40:46.130Z,7.10
2023-03-26T00:41:46.098Z,7.30
2023-03-26T00:42:46.100Z,11.40
2023-03-26T00:43:46.074Z,11.10
2023-03-26T00:44:46.078Z,9.50
2023-03-26T00:45:46.058Z,10.90
2023-03-26T00:46:46.091Z,9.00
2023-03-26T00:47:46.071Z,14.50
2023-03-26T00:48:46.261Z,8.40
2023-03-26T00:49:45.966Z,5.40
2023-03-26T00:50:45.973Z,13.70
2023-03-26T00:51:45.948Z,11.80
2023-03-26T00:52:45.930Z,8.60
2023-03-26T00:53:45.944Z,14.20
2023-03-26T00:54:45.907Z,7.00
2023-03-26T00:55:45.903Z,9.80
2023-03-26T00:56:45.904Z,9.10
2023-03-26T00:57:45.865Z,10.30
2023-03-26T00:58:45.869Z,8.00
2023-03-26T00:59:45.932Z,13.00
2023-03-26T01:00:46.832Z,14.90
2023-03-26T01:01:45.863Z,10.60
2023-03-26T01:02:45.855Z,8.80
2023-03-26T01:03:53.494Z,8.30
2023-03-26T01:04:46.004Z,8.70
2023-03-26T01:05:45.771Z,10.20
2023-03-26T01:06:45.778Z,9.80
2023-03-26T01:07:45.724Z,7.90
2023-03-26T01:08:45.777Z,11.00
2023-03-26T01:09:45.736Z,8.00
2023-03-26T01:10:45.700Z,10.50
2023-03-26T01:11:45.748Z,7.10
2023-03-26T01:12:45.658Z,9.60
2023-03-26T01:13:45.709Z,11.90
2023-03-26T01:14:45.625Z,8.30
2023-03-26T01:15:45.705Z,11.40
2023-03-26T01:16:45.608Z,9.30
2023-03-26T01:17:45.648Z,9.90
2023-03-26T01:18:45.591Z,16.30
2023-03-26T01:19:45.674Z,12.30
2023-03-26T01:20:45.565Z,9.60
2023-03-26T01:21:45.561Z,14.40
2023-03-26T01:22:45.521Z,12.80
2023-03-26T01:23:45.562Z,8.50
2023-03-26T01:24:45.502Z,13.80
2023-03-26T01:25:45.500Z,10.80
2023-03-26T01:26:45.537Z,10.50
2023-03-26T01:27:45.491Z,14.60
2023-03-26T01:28:45.466Z,9.20
2023-03-26T01:29:45.474Z,13.30
2023-03-26T01:30:45.454Z,16.90
2023-03-26T01:31:45.455Z,16.90
2023-03-26T01:32:45.456Z,13.40
2023-03-26T01:33:45.567Z,22.10
2023-03-26T01:34:45.400Z,16.60
2023-03-26T01:35:45.367Z,14.50
2023-03-26T01:36:45.353Z,15.20
2023-03-26T01:37:45.315Z,13.60
2023-03-26T01:38:45.371Z,18.30
2023-03-26T01:39:45.314Z,14.70
2023-03-26T01:40:45.308Z,14.80
2023-03-26T01:41:45.254Z,21.40
2023-03-26T01:42:45.286Z,19.70
2023-03-26T01:43:45.233Z,17.50
2023-03-26T01:44:45.294Z,26.70
2023-03-26T01:45:45.215Z,18.20
2023-03-26T01:46:45.265Z,18.70
2023-03-26T01:47:45.211Z,22.40
2023-03-26T01:48:45.215Z,26.20
2023-03-26T01:49:45.158Z,20.60
2023-03-26T01:50:45.170Z,15.50
2023-03-26T01:51:45.183Z,26.10
2023-03-26T01:52:45.167Z,25.70
2023-03-26T01:53:45.143Z,22.90
2023-03-26T01:54:45.086Z,25.50
2023-03-26T01:55:45.077Z,19.00
2023-03-26T01:56:45.073Z,22.00
2023-03-26T01:57:45.082Z,26.10
2023-03-26T01:58:45.079Z,21.80
2023-03-26T01:59:45.054Z,28.40
2023-03-26T02:00:45.042Z,22.30
2023-03-26T02:01:45.089Z,28.10
2023-03-26T02:02:45.136Z,20.60
2023-03-26T02:03:45.087Z,21.60
2023-03-26T02:04:44.980Z,30.60
2023-03-26T02:05:44.938Z,26.00
2023-03-26T02:06:44.917Z,27.70
2023-03-26T02:07:44.938Z,29.70
2023-03-26T02:08:44.930Z,27.90
2023-03-26T02:09:44.897Z,28.50
2023-03-26T02:10:44.881Z,29.50
2023-03-26T02:11:44.847Z,31.60
2023-03-26T02:12:44.852Z,32.20
2023-03-26T02:13:44.827Z,28.40
2023-03-26T02:14:44.812Z,29.40
2023-03-26T02:15:44.807Z,25.80
2023-03-26T02:16:44.839Z,29.00
2023-03-26T02:17:44.799Z,31.80
2023-03-26T02:18:44.747Z,24.20
2023-03-26T02:19:44.751Z,26.50
2023-03-26T02:20:44.737Z,35.40
2023-03-26T02:21:44.706Z,29.50
2023-03-26T02:22:44.694Z,25.40
2023-03-26T02:23:44.682Z,28.00
2023-03-26T02:24:44.666Z,40.90
2023-03-26T02:25:44.649Z,31.20
2023-03-26T02:26:44.677Z,39.60
2023-03-26T02:27:44.617Z,31.00
2023-03-26T02:28:44.621Z,34.10
2023-03-26T02:29:44.589Z,37.00
2023-03-26T02:30:44.584Z,39.60
2023-03-26T02:31:44.613Z,28.70
2023-03-26T02:32:44.598Z,26.00
2023-03-26T02:33:44.540Z,28.20
2023-03-26T02:34:44.534Z,24.90
2023-03-26T02:35:44.557Z,29.60
2023-03-26T02:36:44.534Z,34.40
2023-03-26T02:37:44.527Z,34.60
2023-03-26T02:38:44.476Z,38.50
2023-03-26T02:39:44.464Z,33.60
2023-03-26T02:40:44.472Z,34.30
2023-03-26T02:41:44.489Z,36.90
2023-03-26T02:42:44.423Z,32.20
2023-03-26T02:43:44.543Z,31.40
2023-03-26T02:44:44.399Z,34.40
2023-03-26T02:45:44.396Z,36.60
2023-03-26T02:46:44.382Z,31.50
2023-03-26T02:47:44.430Z,28.30
2023-03-26T02:48:44.333Z,36.00
2023-03-26T02:49:44.329Z,37.70
2023-03-26T02:50:44.353Z,34.80
2023-03-26T02:51:44.321Z,31.60
2023-03-26T02:52:44.301Z,27.50
2023-03-26T02:53:44.286Z,31.20
2023-03-26T02:54:44.304Z,30.10
2023-03-26T02:55:44.246Z,26.80
2023-03-26T02:56:44.370Z,32.90
2023-03-26T02:57:44.300Z,32.80
2023-03-26T02:58:44.254Z,35.10
2023-03-26T02:59:44.189Z,28.50
2023-03-26T03:00:44.221Z,30.70
2023-03-26T03:01:44.180Z,24.40
2023-03-26T03:02:44.247Z,34.00
2023-03-26T03:03:44.134Z,33.50
2023-03-26T03:04:44.138Z,35.20
2023-03-26T03:05:44.121Z,35.00
2023-03-26T03:06:44.122Z,33.40
2023-03-26T03:07:44.078Z,27.00
2023-03-26T03:08:44.071Z,34.30
2023-03-26T03:09:44.060Z,30.20
2023-03-26T03:10:44.032Z,36.60
2023-03-26T03:11:44.038Z,32.20
2023-03-26T03:12:44.003Z,38.30
2023-03-26T03:13:43.995Z,35.30
2023-03-26T03:14:43.980Z,29.90
2023-03-26T03:15:43.967Z,37.80
2023-03-26T03:16:44.008Z,36.70
2023-03-26T03:17:43.955Z,34.90
2023-03-26T03:18:43.945Z,36.60
2023-03-26T03:19:43.903Z,34.60
2023-03-26T03:20:43.914Z,34.40
2023-03-26T03:21:43.925Z,31.60
2023-03-26T03:22:43.880Z,28.30
2023-03-26T03:23:43.872Z,33.80
2023-03-26T03:24:43.862Z,34.00
2023-03-26T03:25:43.854Z,31.40
2023-03-26T03:26:43.838Z,30.40
2023-03-26T03:27:43.812Z,36.60
2023-03-26T03:28:43.789Z,38.30
2023-03-26T03:29:43.791Z,33.20
2023-03-26T03:30:43.871Z,35.60
2023-03-26T03:31:43.755Z,30.50
2023-03-26T03:32:43.831Z,34.00
2023-03-26T03:33:43.758Z,28.40
2023-03-26T03:34:43.727Z,34.80
2023-03-26T03:35:43.698Z,32.20
2023-03-26T03:36:43.712Z,32.60
2023-03-26T03:37:43.679Z,32.50
2023-03-26T03:38:43.699Z,32.60
2023-03-26T03:39:43.654Z,30.20
2023-03-26T03:40:43.630Z,37.00
2023-03-26T03:41:43.644Z,29.40
2023-03-26T03:42:43.605Z,39.30
2023-03-26T03:43:43.591Z,45.50
2023-03-26T03:44:43.570Z,34.00
2023-03-26T03:45:43.562Z,35.40
2023-03-26T03:46:43.629Z,37.50
2023-03-26T03:47:43.589Z,35.60
2023-03-26T03:48:43.523Z,33.40
2023-03-26T03:49:43.524Z,30.70
2023-03-26T03:50:43.504Z,29.90
2023-03-26T03:51:43.492Z,34.80
2023-03-26T03:52:43.472Z,35.30
2023-03-26T03:53:43.452Z,38.30
2023-03-26T03:54:43.446Z,39.50
2023-03-26T03:55:43.420Z,33.60
2023-03-26T03:56:43.450Z,40.90
2023-03-26T03:57:43.433Z,48.30
2023-03-26T03:58:43.388Z,38.20
2023-03-26T03:59:47.663Z,33.80
2023-03-26T04:00:43.360Z,37.30
2023-03-26T04:01:43.356Z,35.10
2023-03-26T04:02:43.490Z,27.50
2023-03-26T04:03:43.473Z,40.70
2023-03-26T04:04:43.363Z,37.40
2023-03-26T04:05:43.291Z,35.70
2023-03-26T04:06:43.287Z,35.30
2023-03-26T04:07:43.264Z,45.70
2023-03-26T04:08:43.246Z,35.10
2023-03-26T04:09:43.269Z,38.50
2023-03-26T04:10:43.272Z,38.70
2023-03-26T04:11:43.219Z,34.60
2023-03-26T04:12:43.220Z,34.40
2023-03-26T04:13:43.190Z,33.30
2023-03-26T04:14:43.176Z,32.30
2023-03-26T04:15:43.167Z,33.10
2023-03-26T04:16:43.135Z,29.40
2023-03-26T04:17:43.199Z,35.80
2023-03-26T04:18:43.169Z,38.20
2023-03-26T04:19:43.103Z,35.60
2023-03-26T04:20:43.126Z,29.20
2023-03-26T04:21:43.096Z,32.20
2023-03-26T04:22:43.082Z,40.90
2023-03-26T04:23:43.055Z,35.90
2023-03-26T04:24:43.035Z,32.10
2023-03-26T04:25:43.074Z,37.70
2023-03-26T04:26:43.019Z,35.10
2023-03-26T04:27:43.010Z,35.60
2023-03-26T04:28:43.031Z,37.70
2023-03-26T04:29:43.034Z,38.60
2023-03-26T04:30:42.987Z,33.10
2023-03-26T04:31:42.993Z,32.30
2023-03-26T04:32:43.095Z,31.60
2023-03-26T04:33:42.955Z,38.50
2023-03-26T04:34:42.964Z,40.40
2023-03-26T04:35:42.928Z,33.50
2023-03-26T04:36:42.885Z,34.20
2023-03-26T04:37:42.860Z,37.60
2023-03-26T04:38:42.873Z,35.20
2023-03-26T04:39:42.831Z,37.10
2023-03-26T04:40:42.826Z,29.30
2023-03-26T04:41:42.799Z,31.80
2023-03-26T04:42:42.861Z,37.50
2023-03-26T04:43:42.784Z,32.70
2023-03-26T04:44:42.838Z,30.60
2023-03-26T04:45:42.749Z,36.30
2023-03-26T04:46:42.815Z,32.40
2023-03-26T04:47:42.764Z,37.10
2023-03-26T04:48:42.752Z,36.80
2023-03-26T04:49:42.687Z,40.30
2023-03-26T04:50:42.708Z,35.30
2023-03-26T04:51:42.667Z,44.10
2023-03-26T04:52:44.999Z,42.50
2023-03-26T04:53:42.678Z,31.60
2023-03-26T04:54:42.681Z,36.60
2023-03-26T04:55:42.613Z,34.10
2023-03-26T04:56:42.702Z,37.50
2023-03-26T04:57:42.583Z,39.60
2023-03-26T04:58:42.609Z,33.00
2023-03-26T04:59:42.552Z,38.80
2023-03-26T05:00:42.596Z,33.50
2023-03-26T05:01:42.621Z,33.20
2023-03-26T05:02:42.594Z,41.80
2023-03-26T05:03:42.555Z,42.30
2023-03-26T05:04:42.596Z,38.40
2023-03-26T05:05:42.477Z,32.30
2023-03-26T05:06:42.474Z,34.40
2023-03-26T05:07:42.493Z,34.60
2023-03-26T05:08:42.491Z,39.60
2023-03-26T05:09:42.440Z,30.20
2023-03-26T05:10:42.411Z,39.60
2023-03-26T05:11:42.381Z,40.40
2023-03-26T05:12:42.413Z,36.30
2023-03-26T05:13:42.392Z,38.80
2023-03-26T05:14:42.368Z,38.10
2023-03-26T05:15:42.360Z,32.10
2023-03-26T05:16:42.378Z,37.70
2023-03-26T05:17:42.364Z,38.40
2023-03-26T05:18:42.372Z,30.60
2023-03-26T05:19:42.287Z,31.90
2023-03-26T05:20:42.268Z,34.10
2023-03-26T05:21:42.270Z,36.30
2023-03-26T05:22:42.255Z,43.60
2023-03-26T05:23:42.263Z,35.10
2023-03-26T05:24:42.225Z,32.90
2023-03-26T05:25:42.197Z,37.30
2023-03-26T05:26:42.186Z,38.60
2023-03-26T05:27:42.164Z,42.80
2023-03-26T05:28:42.224Z,28.30
2023-03-26T05:29:42.160Z,32.20
2023-03-26T05:30:42.258Z,33.00
2023-03-26T05:31:42.167Z,33.30
2023-03-26T05:32:42.225Z,36.80
2023-03-26T05:33:42.216Z,39.20
2023-03-26T05:34:42.115Z,33.90
2023-03-26T05:35:42.174Z,37.90
2023-03-26T05:36:42.074Z,30.30
2023-03-26T05:37:42.030Z,34.50
2023-03-26T05:38:42.026Z,33.60
2023-03-26T05:39:42.019Z,38.50
2023-03-26T05:40:42.006Z,33.80
2023-03-26T05:41:42.017Z,32.30
2023-03-26T05:42:42.007Z,32.30
2023-03-26T05:43:41.989Z,36.80
2023-03-26T05:44:42.026Z,28.40
2023-03-26T05:45:42.006Z,33.20
2023-03-26T05:46:41.946Z,43.40
2023-03-26T05:47:42.054Z,30.90
2023-03-26T05:48:41.937Z,36.60
2023-03-26T05:49:41.881Z,30.10
2023-03-26T05:50:41.877Z,38.30
2023-03-26T05:51:41.856Z,28.30
2023-03-26T05:52:41.855Z,38.80
2023-03-26T05:53:41.892Z,30.20
2023-03-26T05:54:41.835Z,26.30
2023-03-26T05:55:41.802Z,39.10
2023-03-26T05:56:41.821Z,40.90
2023-03-26T05:57:41.759Z,39.50
2023-03-26T05:58:41.778Z,25.70
2023-03-26T05:59:41.774Z,32.30
2023-03-26T06:00:41.747Z,31.20
2023-03-26T06:01:41.712Z,31.70
2023-03-26T06:02:41.802Z,29.10
2023-03-26T06:03:41.715Z,33.50
2023-03-26T06:04:41.794Z,35.70
2023-03-26T06:05:41.652Z,27.80
2023-03-26T06:06:41.667Z,29.70
2023-03-26T06:07:41.634Z,25.50
2023-03-26T06:08:41.652Z,32.50
2023-03-26T06:09:41.613Z,37.70
2023-03-26T06:10:41.625Z,30.00
2023-03-26T06:11:41.574Z,28.80
2023-03-26T06:12:41.580Z,25.20
2023-03-26T06:13:41.599Z,32.70
2023-03-26T06:14:41.553Z,26.30
2023-03-26T06:15:41.570Z,33.00
2023-03-26T06:16:41.507Z,30.50
2023-03-26T06:17:41.599Z,28.60
2023-03-26T06:18:41.514Z,33.20
2023-03-26T06:19:41.473Z,29.40
2023-03-26T06:20:41.438Z,33.40
2023-03-26T06:21:41.439Z,29.10
2023-03-26T06:22:41.401Z,27.30
2023-03-26T06:23:41.405Z,28.00
2023-03-26T06:24:41.395Z,32.20
2023-03-26T06:25:41.383Z,26.90
2023-03-26T06:26:41.365Z,29.00
2023-03-26T06:27:41.371Z,25.60
2023-03-26T06:28:41.348Z,28.60
2023-03-26T06:29:41.371Z,27.90
2023-03-26T06:30:41.310Z,24.10
2023-03-26T06:31:41.347Z,28.30
2023-03-26T06:32:41.377Z,31.90
2023-03-26T06:33:41.330Z,36.50
2023-03-26T06:34:41.283Z,27.70
2023-03-26T06:35:41.318Z,31.00
2023-03-26T06:36:41.273Z,29.90
2023-03-26T06:37:41.273Z,27.50
2023-03-26T06:38:41.248Z,27.80
2023-03-26T06:39:41.250Z,26.80
2023-03-26T06:40:41.180Z,29.60
2023-03-26T06:41:41.206Z,28.40
2023-03-26T06:43:06.987Z,30.10
2023-03-26T06:43:41.182Z,24.10
2023-03-26T06:44:41.129Z,30.80
2023-03-26T06:45:41.152Z,34.50
2023-03-26T06:46:41.146Z,36.30
2023-03-26T06:47:41.214Z,28.20
2023-03-26T06:48:41.085Z,26.20
2023-03-26T06:49:41.418Z,34.60
2023-03-26T06:50:41.068Z,31.40
2023-03-26T06:51:41.096Z,28.60
2023-03-26T06:52:41.035Z,42.00
2023-03-26T06:53:41.058Z,28.60
2023-03-26T06:54:40.987Z,30.40
2023-03-26T06:55:41.024Z,33.50
2023-03-26T06:56:40.965Z,31.00
2023-03-26T06:57:40.957Z,30.60
2023-03-26T06:58:40.955Z,29.90
2023-03-26T06:59:40.918Z,27.80
2023-03-26T07:00:41.202Z,29.10
2023-03-26T07:01:40.915Z,31.90
2023-03-26T07:02:40.948Z,31.00
2023-03-26T07:03:40.921Z,33.00
2023-03-26T07:04:40.923Z,23.70
2023-03-26T07:05:41.978Z,26.30
2023-03-26T07:06:40.852Z,26.60
2023-03-26T07:07:45.964Z,26.70
2023-03-26T07:08:40.802Z,29.70
2023-03-26T07:09:40.799Z,28.40
2023-03-26T07:10:40.789Z,33.70
2023-03-26T07:11:40.780Z,22.20
2023-03-26T07:12:40.768Z,35.60
2023-03-26T07:13:40.738Z,30.60
2023-03-26T07:14:40.711Z,30.50
2023-03-26T07:15:40.740Z,27.10
2023-03-26T07:16:40.714Z,29.20
2023-03-26T07:17:40.762Z,22.60
2023-03-26T07:18:40.660Z,19.20
2023-03-26T07:19:40.649Z,30.40
2023-03-26T07:20:40.704Z,22.20
2023-03-26T07:21:40.643Z,28.00
2023-03-26T07:22:40.606Z,28.80
2023-03-26T07:23:40.668Z,29.50
2023-03-26T07:24:40.614Z,26.30
2023-03-26T07:25:40.627Z,25.80
2023-03-26T07:26:40.580Z,22.60
2023-03-26T07:27:40.602Z,22.10
2023-03-26T07:28:40.687Z,27.50
2023-03-26T07:29:40.584Z,21.50
2023-03-26T07:30:40.531Z,24.00
2023-03-26T07:31:40.619Z,18.10
2023-03-26T07:32:40.522Z,24.20
2023-03-26T07:33:40.497Z,28.40
2023-03-26T07:34:40.479Z,24.80
2023-03-26T07:35:40.492Z,21.70
2023-03-26T07:36:40.426Z,24.00
2023-03-26T07:37:40.450Z,24.70
2023-03-26T07:38:40.424Z,25.90
2023-03-26T07:39:40.413Z,20.40
2023-03-26T07:40:40.368Z,25.10
2023-03-26T07:41:40.386Z,28.50
2023-03-26T07:42:41.386Z,25.50
2023-03-26T07:43:40.316Z,21.40
2023-03-26T07:44:40.305Z,25.30
2023-03-26T07:45:40.310Z,31.50
2023-03-26T07:46:40.314Z,22.20
2023-03-26T07:47:40.297Z,28.60
2023-03-26T07:48:40.261Z,24.50
2023-03-26T07:49:40.250Z,29.30
2023-03-26T07:50:40.273Z,25.80
2023-03-26T07:51:40.229Z,22.50
2023-03-26T07:52:40.273Z,26.60
2023-03-26T07:53:40.231Z,27.60
2023-03-26T07:54:40.190Z,29.50
2023-03-26T07:55:40.287Z,24.00
2023-03-26T07:56:40.301Z,26.50
2023-03-26T07:57:40.183Z,20.90
2023-03-26T07:58:40.113Z,27.50
2023-03-26T07:59:40.162Z,26.50
2023-03-26T08:00:40.084Z,25.80
2023-03-26T08:01:40.108Z,22.80
2023-03-26T08:02:40.126Z,26.60
2023-03-26T08:03:40.217Z,31.50
2023-03-26T08:04:40.205Z,21.20
2023-03-26T08:05:41.156Z,27.90
2023-03-26T08:06:40.044Z,28.30
2023-03-26T08:07:40.241Z,22.40
2023-03-26T08:08:39.981Z,20.50
2023-03-26T08:09:39.992Z,26.00
2023-03-26T08:10:39.951Z,22.60
2023-03-26T08:11:39.960Z,26.90
2023-03-26T08:12:39.922Z,25.40
2023-03-26T08:13:39.947Z,27.50
2023-03-26T08:14:39.897Z,21.10
2023-03-26T08:15:39.952Z,25.60
2023-03-26T08:16:39.884Z,24.10
2023-03-26T08:17:39.958Z,25.60
2023-03-26T08:18:39.851Z,29.70
2023-03-26T08:19:39.864Z,23.50
2023-03-26T08:20:39.810Z,21.70
2023-03-26T08:21:39.820Z,29.30
2023-03-26T08:22:39.846Z,30.90
2023-03-26T08:23:50.655Z,32.80
2023-03-26T08:24:39.779Z,28.30
2023-03-26T08:25:39.808Z,33.90
2023-03-26T08:26:39.749Z,32.20
2023-03-26T08:29:22.197Z,27.50
2023-03-26T08:32:49.825Z,19.30
2023-03-26T08:33:50.979Z,23.40
2023-03-26T08:34:50.802Z,26.70
2023-03-26T08:35:50.847Z,28.10
2023-03-26T08:36:50.742Z,19.40
2023-03-26T08:37:50.832Z,22.10
2023-03-26T08:38:50.702Z,22.10
2023-03-26T08:40:11.759Z,23.20
2023-03-26T08:40:50.673Z,19.90
2023-03-26T08:41:50.709Z,27.30
2023-03-26T08:42:50.654Z,24.50
2023-03-26T08:43:50.656Z,21.60
2023-03-26T08:44:51.649Z,25.10
2023-03-26T08:45:50.624Z,21.00
2023-03-26T08:46:50.669Z,23.30
2023-03-26T08:47:50.637Z,20.50
2023-03-26T08:48:50.570Z,24.80
2023-03-26T08:51:03.384Z,20.90
2023-03-26T08:52:04.355Z,21.50
2023-03-26T08:53:04.380Z,22.10
2023-03-26T08:54:04.329Z,27.30
2023-03-26T08:55:04.351Z,23.70
2023-03-26T08:56:04.319Z,23.00
2023-03-26T08:57:04.425Z,20.90
2023-03-26T08:58:04.252Z,24.00
2023-03-26T08:59:04.309Z,22.20
2023-03-26T09:00:05.351Z,24.50
2023-03-26T09:01:04.274Z,18.20
2023-03-26T09:02:04.229Z,25.80
2023-03-26T09:03:04.272Z,24.00
2023-03-26T09:04:05.338Z,24.40
2023-03-26T09:05:04.212Z,17.60
2023-03-26T09:06:04.159Z,24.20
2023-03-26T09:07:04.212Z,20.30
2023-03-26T09:08:04.156Z,25.90
2023-03-26T09:09:04.175Z,18.10
2023-03-26T09:10:25.155Z,22.20
2023-03-26T09:11:04.083Z,23.00
2023-03-26T09:12:04.101Z,28.20
2023-03-26T09:13:04.058Z,28.00
2023-03-26T09:14:04.052Z,28.00
2023-03-26T09:15:04.057Z,25.00
2023-03-26T09:16:04.112Z,21.70
2023-03-26T09:17:04.012Z,25.40
2023-03-26T09:18:04.022Z,13.80
2023-03-26T09:19:03.965Z,18.70
2023-03-26T09:20:03.973Z,19.00
2023-03-26T09:21:03.967Z,18.50
2023-03-26T09:22:03.928Z,26.20
2023-03-26T09:23:03.937Z,19.20
2023-03-26T09:24:03.902Z,15.20
2023-03-26T09:25:03.904Z,19.20
2023-03-26T09:26:03.900Z,20.40
2023-03-26T09:27:03.988Z,23.40
2023-03-26T09:28:03.930Z,20.80
2023-03-26T09:29:03.885Z,19.50
2023-03-26T09:30:03.837Z,17.70
2023-03-26T09:31:03.888Z,17.60
2023-03-26T09:32:03.927Z,18.90
2023-03-26T09:33:03.893Z,23.80
2023-03-26T09:34:24.770Z,19.40
2023-03-26T09:35:05.937Z,18.20
2023-03-26T09:36:03.830Z,17.20
2023-03-26T09:37:03.730Z,14.30
2023-03-26T09:38:04.041Z,17.70
2023-03-26T09:39:11.455Z,16.50
2023-03-26T09:40:03.690Z,18.60
2023-03-26T09:41:03.723Z,20.00
2023-03-26T09:42:03.716Z,18.10
2023-03-26T09:43:03.670Z,21.90
2023-03-26T09:44:03.685Z,19.70
2023-03-26T09:45:03.706Z,20.10
2023-03-26T09:46:03.713Z,19.00
2023-03-26T09:47:03.610Z,19.80
2023-03-26T09:48:03.659Z,21.10
2023-03-26T09:49:03.621Z,17.50
2023-03-26T09:50:03.553Z,14.10
2023-03-26T09:51:03.555Z,15.60
2023-03-26T09:52:03.567Z,18.10
2023-03-26T09:53:03.548Z,17.90
2023-03-26T09:54:03.551Z,15.70
2023-03-26T09:55:03.480Z,20.30
2023-03-26T09:56:04.858Z,18.80
2023-03-26T09:57:03.552Z,16.30
2023-03-26T09:58:03.501Z,19.50
2023-03-26T09:59:03.503Z,21.40
2023-03-26T10:00:03.462Z,17.20
2023-03-26T10:01:03.482Z,18.80
2023-03-26T10:02:03.395Z,15.20
2023-03-26T10:03:03.437Z,16.80
2023-03-26T10:04:03.494Z,17.70
2023-03-26T10:05:03.540Z,15.10
2023-03-26T10:06:03.387Z,15.70
2023-03-26T10:07:03.371Z,14.90
2023-03-26T10:08:03.361Z,17.60
2023-03-26T10:09:03.328Z,18.90
2023-03-26T10:10:03.287Z,15.00
2023-03-26T10:11:03.286Z,16.00
2023-03-26T10:12:03.270Z,15.00
2023-03-26T10:13:13.945Z,19.10
2023-03-26T10:14:12.290Z,19.20
2023-03-26T10:15:03.229Z,17.80
2023-03-26T10:16:03.229Z,16.30
2023-03-26T10:17:03.384Z,12.70
2023-03-26T10:18:27.901Z,14.70
2023-03-26T10:19:03.603Z,17.90
2023-03-26T10:20:03.176Z,14.90
2023-03-26T10:21:03.147Z,22.80
2023-03-26T10:22:03.122Z,16.90
2023-03-26T10:23:03.148Z,12.90
2023-03-26T10:24:06.241Z,20.60
2023-03-26T10:25:03.101Z,17.10
2023-03-26T10:26:03.123Z,22.40
2023-03-26T10:27:08.319Z,17.60
2023-03-26T10:28:03.191Z,17.90
2023-03-26T10:29:03.037Z,15.10
2023-03-26T10:30:03.061Z,17.00
2023-03-26T10:31:03.028Z,13.40
2023-03-26T10:32:02.999Z,22.00
2023-03-26T10:33:03.050Z,19.40
2023-03-26T10:34:02.996Z,15.60
2023-03-26T10:35:02.994Z,21.30
2023-03-26T10:36:02.962Z,11.60
2023-03-26T10:37:02.945Z,18.70
2023-03-26T10:38:02.892Z,22.10
2023-03-26T10:39:02.902Z,17.90
2023-03-26T10:40:02.894Z,20.60
2023-03-26T10:41:02.894Z,14.30
2023-03-26T10:42:02.853Z,15.30
2023-03-26T10:43:02.882Z,16.90
2023-03-26T10:44:08.367Z,17.20
2023-03-26T10:45:02.825Z,15.70
2023-03-26T10:46:02.814Z,21.20
2023-03-26T10:47:02.785Z,16.60
2023-03-26T10:48:02.858Z,16.30
2023-03-26T10:49:02.786Z,20.30
2023-03-26T10:50:02.746Z,20.40
2023-03-26T10:51:02.750Z,17.50
2023-03-26T10:52:02.707Z,16.70
2023-03-26T10:53:02.718Z,16.30
2023-03-26T10:54:02.707Z,13.80
2023-03-26T10:55:02.685Z,15.50
2023-03-26T10:56:02.646Z,12.00
2023-03-26T10:57:02.676Z,14.10
2023-03-26T10:58:02.660Z,13.40
2023-03-26T10:59:02.674Z,14.40
2023-03-26T11:00:02.617Z,12.00
2023-03-26T11:01:04.733Z,11.60
2023-03-26T11:02:02.570Z,9.00
2023-03-26T11:03:05.675Z,8.90
2023-03-26T11:04:02.570Z,15.20
2023-03-26T11:05:02.622Z,12.90
2023-03-26T11:06:02.521Z,10.80
2023-03-26T11:07:03.831Z,9.80
2023-03-26T11:08:04.033Z,9.70
2023-03-26T11:09:02.573Z,6.40
2023-03-26T11:10:02.510Z,8.20
2023-03-26T11:11:02.475Z,6.80
2023-03-26T11:12:02.440Z,8.30
2023-03-26T11:13:03.889Z,12.90
2023-03-26T11:14:02.464Z,13.20
2023-03-26T11:15:02.469Z,7.70
2023-03-26T11:16:02.448Z,11.40
2023-03-26T11:17:02.428Z,12.00
2023-03-26T11:18:02.421Z,7.20
2023-03-26T11:19:05.107Z,7.30
2023-03-26T11:20:02.342Z,13.20
2023-03-26T11:21:18.622Z,13.10
2023-03-26T11:22:02.345Z,13.50
2023-03-26T11:23:02.299Z,9.20
2023-03-26T11:24:04.925Z,12.40
2023-03-26T11:25:04.438Z,9.20
2023-03-26T11:26:02.268Z,10.50
2023-03-26T11:27:25.043Z,10.50
2023-03-26T11:28:02.238Z,10.20
2023-03-26T11:29:03.822Z,11.50
2023-03-26T11:30:02.258Z,6.50
2023-03-26T11:31:02.209Z,7.80
2023-03-26T11:32:02.181Z,7.80
2023-03-26T11:33:02.164Z,9.40
2023-03-26T11:34:02.163Z,9.50
2023-03-26T11:35:02.126Z,5.50
2023-03-26T11:36:02.162Z,8.00
2023-03-26T11:37:02.103Z,6.90
2023-03-26T11:38:02.092Z,7.40
2023-03-26T11:39:02.104Z,6.00
2023-03-26T11:40:02.082Z,4.90
2023-03-26T11:41:02.073Z,7.60
2023-03-26T11:42:02.040Z,4.60
2023-03-26T11:43:02.033Z,5.00
2023-03-26T11:44:02.054Z,7.50
2023-03-26T11:45:02.011Z,4.70
2023-03-26T11:46:02.020Z,10.50
2023-03-26T11:47:02.005Z,6.30
2023-03-26T11:48:02.011Z,4.70
2023-03-26T11:49:01.943Z,5.30
2023-03-26T11:50:01.952Z,5.80
2023-03-26T11:51:01.930Z,6.70
2023-03-26T11:52:01.913Z,4.20
2023-03-26T11:53:01.898Z,7.10
2023-03-26T11:54:01.901Z,5.70
2023-03-26T11:55:01.864Z,4.50
2023-03-26T11:56:01.882Z,3.60
2023-03-26T11:57:05.936Z,5.10
2023-03-26T11:58:01.841Z,5.60
2023-03-26T11:59:01.855Z,7.90
2023-03-26T12:00:01.816Z,5.80
2023-03-26T12:01:01.824Z,5.60
2023-03-26T12:02:01.845Z,7.50
2023-03-26T12:03:01.806Z,5.30
2023-03-26T12:04:01.792Z,5.10
2023-03-26T12:05:01.723Z,5.40
2023-03-26T12:06:01.769Z,5.70
2023-03-26T12:07:01.681Z,5.80
2023-03-26T12:08:01.702Z,8.10
2023-03-26T12:09:22.822Z,7.30
2023-03-26T12:10:17.927Z,7.20
2023-03-26T12:11:01.656Z,6.40
2023-03-26T12:12:01.642Z,3.90
2023-03-26T12:13:01.679Z,6.20
2023-03-26T12:14:01.622Z,5.60
2023-03-26T12:15:01.630Z,6.50
2023-03-26T12:16:01.618Z,5.40
2023-03-26T12:17:01.729Z,7.00
2023-03-26T12:18:01.633Z,4.00
2023-03-26T12:19:01.532Z,4.80
2023-03-26T12:20:01.514Z,4.40
2023-03-26T12:21:01.508Z,5.50
2023-03-26T12:22:01.585Z,5.20
2023-03-26T12:23:01.506Z,7.10
2023-03-26T12:24:01.517Z,7.90
2023-03-26T12:25:01.451Z,3.80
2023-03-26T12:26:24.239Z,8.00
2023-03-26T12:27:01.429Z,3.50
2023-03-26T12:28:01.441Z,4.90
2023-03-26T12:29:01.453Z,6.30
2023-03-26T12:30:01.416Z,3.90
2023-03-26T12:31:01.418Z,4.20
2023-03-26T12:32:01.422Z,4.20
2023-03-26T12:33:22.408Z,5.60
2023-03-26T12:34:01.360Z,7.10
2023-03-26T12:35:02.511Z,7.70
2023-03-26T12:36:27.968Z,7.00
2023-03-26T12:37:01.359Z,8.30
2023-03-26T12:38:01.317Z,4.40
2023-03-26T12:39:16.890Z,3.90
2023-03-26T12:40:17.128Z,5.80
2023-03-26T12:41:01.255Z,4.30
2023-03-26T12:44:42.649Z,4.50
2023-03-26T12:45:02.392Z,5.90
2023-03-26T12:45:07.768Z,7.70
2023-03-26T12:47:57.902Z,6.90
2023-03-26T12:48:07.359Z,6.70
2023-03-26T12:48:12.798Z,7.80
2023-03-26T12:49:33.714Z,6.50
2023-03-26T12:50:12.736Z,4.20
2023-03-26T12:51:12.655Z,5.60
2023-03-26T12:52:12.729Z,4.50
2023-03-26T12:53:12.675Z,4.70
2023-03-26T12:54:14.763Z,2.80
2023-03-26T12:55:12.624Z,4.20
2023-03-26T12:56:12.633Z,7.30
2023-03-26T12:57:13.431Z,5.80
2023-03-26T12:58:13.237Z,5.00
2023-03-26T12:59:12.558Z,4.40
2023-03-26T13:00:12.548Z,4.30
2023-03-26T13:01:12.573Z,5.80
2023-03-26T13:02:12.568Z,4.60
2023-03-26T13:03:12.528Z,8.10
2023-03-26T13:04:12.479Z,6.60
2023-03-26T13:05:12.469Z,5.60